createdAt,value
2018-07-27T00:01:13.291Z,28.10
2018-07-27T00:03:41.351Z,28.10
2018-07-27T00:06:09.423Z,28.10
2018-07-27T00:08:37.935Z,28.10
2018-07-27T00:11:06.020Z,28.00
2018-07-27T00:13:34.308Z,27.90
2018-07-27T00:16:02.510Z,27.90
2018-07-27T00:18:30.768Z,27.90
2018-07-27T00:20:58.863Z,27.90
2018-07-27T00:23:26.930Z,27.90
2018-07-27T00:25:55.011Z,27.90
2018-07-27T00:28:23.106Z,27.90
2018-07-27T00:30:51.191Z,27.90
2018-07-27T00:33:19.272Z,27.90
2018-07-27T00:35:47.350Z,27.90
2018-07-27T00:38:15.415Z,27.90
2018-07-27T00:40:43.507Z,27.90
2018-07-27T00:43:11.575Z,27.90
2018-07-27T00:45:39.654Z,27.90
2018-07-27T00:48:07.727Z,27.90
2018-07-27T00:50:35.831Z,27.90
2018-07-27T00:53:03.910Z,28.00
2018-07-27T00:55:32.183Z,28.00
2018-07-27T00:58:00.237Z,28.00
2018-07-27T01:00:28.335Z,28.00
2018-07-27T01:02:56.495Z,27.90
2018-07-27T01:05:24.564Z,28.00
2018-07-27T01:07:52.642Z,28.00
2018-07-27T01:10:20.702Z,28.00
2018-07-27T01:12:48.755Z,28.00
2018-07-27T01:15:16.826Z,28.00
2018-07-27T01:17:44.899Z,27.90
2018-07-27T01:20:12.963Z,27.90
2018-07-27T01:22:41.054Z,27.90
2018-07-27T01:25:09.116Z,27.90
2018-07-27T01:27:37.174Z,27.90
2018-07-27T01:30:06.484Z,27.90
2018-07-27T01:32:34.579Z,27.90
2018-07-27T01:35:02.631Z,27.90
2018-07-27T01:37:30.706Z,27.90
2018-07-27T01:39:58.764Z,27.90
2018-07-27T01:42:26.822Z,27.90
2018-07-27T01:44:54.904Z,27.90
2018-07-27T01:47:23.242Z,27.90
2018-07-27T01:49:51.306Z,27.90
2018-07-27T01:52:19.366Z,27.90
2018-07-27T01:54:47.446Z,27.90
2018-07-27T01:57:15.514Z,27.90
2018-07-27T01:59:43.559Z,27.90
2018-07-27T02:02:11.631Z,27.90
2018-07-27T02:04:39.706Z,27.90
2018-07-27T02:07:07.800Z,27.90
2018-07-27T02:09:35.854Z,27.90
2018-07-27T02:12:03.915Z,27.90
2018-07-27T02:14:31.966Z,27.90
2018-07-27T02:17:00.035Z,27.90
2018-07-27T02:19:28.091Z,27.90
2018-07-27T02:21:56.183Z,27.90
2018-07-27T02:24:24.257Z,27.80
2018-07-27T02:26:52.611Z,27.80
2018-07-27T02:29:20.781Z,27.80
2018-07-27T02:31:48.850Z,27.90
2018-07-27T02:34:16.929Z,27.80
2018-07-27T02:36:45.302Z,27.80
2018-07-27T02:39:13.367Z,27.80
2018-07-27T02:41:41.463Z,27.80
2018-07-27T02:44:10.067Z,27.80
2018-07-27T02:46:38.342Z,27.80
2018-07-27T02:49:06.630Z,27.80
2018-07-27T02:51:34.896Z,27.80
2018-07-27T02:54:02.981Z,27.80
2018-07-27T02:58:58.952Z,27.80
2018-07-27T03:01:27.010Z,27.80
2018-07-27T03:03:55.384Z,27.80
2018-07-27T03:06:23.506Z,27.70
2018-07-27T03:08:51.574Z,27.70
2018-07-27T03:11:19.783Z,27.70
2018-07-27T03:13:47.923Z,27.70
2018-07-27T03:16:15.995Z,27.80
2018-07-27T03:18:44.074Z,27.70
2018-07-27T03:21:12.196Z,27.70
2018-07-27T03:23:40.270Z,27.70
2018-07-27T03:26:08.339Z,27.70
2018-07-27T03:28:36.698Z,27.70
2018-07-27T03:31:04.802Z,27.70
2018-07-27T03:33:32.965Z,27.70
2018-07-27T03:36:01.031Z,27.70
2018-07-27T03:38:29.111Z,27.70
2018-07-27T03:40:57.174Z,27.70
2018-07-27T03:43:25.242Z,27.70
2018-07-27T03:45:53.324Z,27.70
2018-07-27T03:48:21.386Z,27.70
2018-07-27T03:50:49.485Z,27.70
2018-07-27T03:53:17.718Z,27.60
2018-07-27T03:55:45.798Z,27.60
2018-07-27T03:58:13.870Z,27.60
2018-07-27T04:00:42.034Z,27.60
2018-07-27T04:03:10.119Z,27.60
2018-07-27T04:05:38.191Z,27.70
2018-07-27T04:08:06.272Z,27.70
2018-07-27T04:10:34.415Z,27.60
2018-07-27T04:13:02.480Z,27.60
2018-07-27T04:15:30.574Z,27.70
2018-07-27T04:18:00.255Z,27.70
2018-07-27T04:20:28.490Z,27.70
2018-07-27T04:22:56.622Z,27.60
2018-07-27T04:25:24.696Z,27.60
2018-07-27T04:27:53.068Z,27.60
2018-07-27T04:30:21.276Z,27.60
2018-07-27T04:32:50.648Z,27.60
2018-07-27T04:35:19.666Z,27.50
2018-07-27T04:37:47.739Z,27.50
2018-07-27T04:40:15.992Z,27.60
2018-07-27T04:42:44.296Z,27.60
2018-07-27T04:45:12.406Z,27.60
2018-07-27T04:47:40.706Z,27.50
2018-07-27T04:50:08.953Z,27.60
2018-07-27T04:52:37.199Z,27.60
2018-07-27T04:55:05.274Z,27.60
2018-07-27T04:57:33.473Z,27.60
2018-07-27T05:00:01.687Z,27.60
2018-07-27T05:02:29.758Z,27.50
2018-07-27T05:04:57.820Z,27.60
2018-07-27T05:07:25.895Z,27.60
2018-07-27T05:09:53.950Z,27.60
2018-07-27T05:12:22.031Z,27.60
2018-07-27T05:14:50.087Z,27.60
2018-07-27T05:17:18.164Z,27.60
2018-07-27T05:19:46.666Z,27.50
2018-07-27T05:22:14.718Z,27.50
2018-07-27T05:24:42.852Z,27.50
2018-07-27T05:27:10.943Z,27.40
2018-07-27T05:29:39.010Z,27.50
2018-07-27T05:32:07.071Z,27.50
2018-07-27T05:34:35.151Z,27.50
2018-07-27T05:37:03.204Z,27.50
2018-07-27T05:39:31.367Z,27.50
2018-07-27T05:41:59.424Z,27.50
2018-07-27T05:44:27.485Z,27.50
2018-07-27T05:46:55.612Z,27.50
2018-07-27T05:49:24.654Z,27.50
2018-07-27T05:56:48.534Z,27.60
2018-07-27T05:59:16.609Z,27.60
2018-07-27T06:01:44.674Z,27.60
2018-07-27T06:04:12.745Z,27.50
2018-07-27T06:06:40.823Z,27.50
2018-07-27T06:09:09.939Z,27.60
2018-07-27T06:14:05.962Z,27.60
2018-07-27T06:16:34.152Z,27.60
2018-07-27T06:21:30.127Z,27.70
2018-07-27T06:23:58.234Z,27.60
2018-07-27T06:26:26.266Z,27.70
2018-07-27T06:28:54.354Z,27.70
2018-07-27T06:31:22.739Z,27.70
2018-07-27T06:33:50.829Z,27.70
2018-07-27T06:36:18.890Z,27.70
2018-07-27T06:38:46.986Z,27.70
2018-07-27T06:41:15.043Z,27.70
2018-07-27T06:43:43.097Z,27.80
2018-07-27T06:46:11.367Z,27.70
2018-07-27T06:48:39.458Z,27.70
2018-07-27T06:51:07.552Z,27.70
2018-07-27T06:53:35.610Z,27.70
2018-07-27T06:56:03.675Z,27.70
2018-07-27T06:58:31.754Z,27.80
2018-07-27T07:00:59.838Z,27.80
2018-07-27T07:03:28.256Z,27.80
2018-07-27T07:05:56.290Z,27.80
2018-07-27T07:08:24.390Z,27.80
2018-07-27T07:10:52.475Z,27.80
2018-07-27T07:13:20.874Z,27.80
2018-07-27T07:15:48.971Z,27.80
2018-07-27T07:18:17.044Z,27.80
2018-07-27T07:20:45.115Z,27.80
2018-07-27T07:23:13.186Z,27.90
2018-07-27T07:25:41.360Z,27.90
2018-07-27T07:28:09.371Z,27.90
2018-07-27T07:30:37.447Z,27.90
2018-07-27T07:33:05.603Z,27.90
2018-07-27T07:35:33.638Z,27.90
2018-07-27T07:38:01.708Z,27.90
2018-07-27T07:40:29.787Z,27.90
2018-07-27T07:42:57.927Z,27.90
2018-07-27T07:45:26.128Z,27.90
2018-07-27T07:47:54.479Z,27.90
2018-07-27T07:50:22.586Z,27.90
2018-07-27T07:52:51.062Z,27.90
2018-07-27T07:55:19.142Z,27.90
2018-07-27T07:57:47.446Z,27.90
2018-07-27T08:00:15.560Z,28.00
2018-07-27T08:02:44.048Z,28.00
2018-07-27T08:05:12.152Z,28.00
2018-07-27T08:07:40.234Z,28.00
2018-07-27T08:10:08.587Z,28.00
2018-07-27T08:12:36.666Z,28.00
2018-07-27T08:15:05.047Z,28.00
2018-07-27T08:17:33.137Z,28.00
2018-07-27T08:20:01.222Z,28.00
2018-07-27T08:22:29.303Z,28.00
2018-07-27T08:24:57.390Z,28.00
2018-07-27T08:27:25.451Z,28.00
2018-07-27T08:29:53.828Z,28.00
2018-07-27T08:32:21.886Z,28.00
2018-07-27T08:34:49.975Z,28.00
2018-07-27T08:37:18.030Z,28.00
2018-07-27T08:39:46.135Z,28.00
2018-07-27T08:42:14.182Z,28.00
2018-07-27T08:44:42.726Z,28.00
2018-07-27T08:47:10.816Z,28.00
2018-07-27T08:49:39.299Z,28.00
2018-07-27T08:52:07.361Z,28.00
2018-07-27T08:54:35.414Z,28.00
2018-07-27T08:59:31.434Z,28.00
2018-07-27T09:01:59.500Z,28.00
2018-07-27T09:04:27.554Z,28.00
2018-07-27T09:06:55.661Z,28.00
2018-07-27T09:09:23.726Z,28.00
2018-07-27T09:11:51.816Z,28.00
2018-07-27T09:14:19.878Z,28.00
2018-07-27T09:16:47.950Z,28.00
2018-07-27T09:19:16.019Z,28.00
2018-07-27T09:21:44.266Z,28.00
2018-07-27T09:24:12.458Z,28.10
2018-07-27T09:26:40.772Z,28.00
2018-07-27T09:29:08.867Z,28.00
2018-07-27T09:31:36.971Z,28.00
2018-07-27T09:34:05.080Z,28.10
2018-07-27T09:36:33.091Z,28.20
2018-07-27T09:39:01.159Z,28.30
2018-07-27T09:41:29.443Z,28.30
2018-07-27T09:43:57.509Z,28.30
2018-07-27T09:46:25.592Z,28.30
2018-07-27T09:48:54.692Z,28.20
2018-07-27T09:51:23.974Z,28.20
2018-07-27T09:53:52.369Z,28.20
2018-07-27T09:56:20.471Z,28.20
2018-07-27T09:58:48.570Z,28.20
2018-07-27T10:01:21.779Z,28.20
2018-07-27T10:03:50.178Z,28.10
2018-07-27T10:06:18.247Z,28.10
2018-07-27T10:08:46.320Z,28.10
2018-07-27T10:11:14.386Z,28.10
2018-07-27T10:13:42.565Z,28.20
2018-07-27T10:16:10.668Z,28.20
2018-07-27T10:18:39.279Z,28.20
2018-07-27T10:21:08.690Z,28.20
2018-07-27T10:23:36.759Z,28.20
2018-07-27T10:26:05.355Z,28.20
2018-07-27T10:28:34.175Z,28.20
2018-07-27T10:31:02.254Z,28.20
2018-07-27T10:33:30.307Z,28.30
2018-07-27T10:35:58.374Z,28.30
2018-07-27T10:38:26.432Z,28.30
2018-07-27T10:40:54.726Z,28.30
2018-07-27T10:43:22.963Z,28.30
2018-07-27T10:45:51.055Z,28.30
2018-07-27T10:48:19.155Z,28.20
2018-07-27T10:50:47.302Z,28.30
2018-07-27T10:53:15.363Z,28.20
2018-07-27T10:55:43.438Z,28.30
2018-07-27T10:58:11.527Z,28.30
2018-07-27T11:00:39.583Z,28.30
2018-07-27T11:03:07.758Z,28.30
2018-07-27T11:05:35.872Z,28.30
2018-07-27T11:08:03.954Z,28.30
2018-07-27T11:10:32.039Z,28.40
2018-07-27T11:13:00.106Z,28.30
2018-07-27T11:15:28.171Z,28.40
2018-07-27T11:17:56.317Z,28.40
2018-07-27T11:20:24.315Z,28.40
2018-07-27T11:22:52.391Z,28.40
2018-07-27T11:25:20.452Z,28.50
2018-07-27T11:27:48.525Z,28.50
2018-07-27T11:30:16.610Z,28.50
2018-07-27T11:32:44.730Z,28.50
2018-07-27T11:35:12.820Z,28.50
2018-07-27T11:37:41.059Z,28.50
2018-07-27T11:40:09.234Z,28.50
2018-07-27T11:42:37.345Z,28.50
2018-07-27T11:45:05.629Z,28.50
2018-07-27T11:47:33.703Z,28.50
2018-07-27T11:50:01.787Z,28.50
2018-07-27T11:52:29.858Z,28.50
2018-07-27T11:54:58.106Z,28.50
2018-07-27T11:57:26.182Z,28.50
2018-07-27T11:59:54.254Z,28.50
2018-07-27T12:02:22.383Z,28.50
2018-07-27T12:04:50.462Z,28.50
2018-07-27T12:07:18.668Z,28.50
2018-07-27T12:09:46.743Z,28.50
2018-07-27T12:12:14.826Z,28.50
2018-07-27T12:14:43.031Z,28.60
2018-07-27T12:17:10.959Z,28.50
2018-07-27T12:19:39.014Z,28.60
2018-07-27T12:22:07.106Z,28.50
2018-07-27T12:24:35.162Z,28.50
2018-07-27T12:27:03.248Z,28.60
2018-07-27T12:29:31.283Z,28.50
2018-07-27T12:31:59.347Z,28.50
2018-07-27T12:34:27.420Z,28.50
2018-07-27T12:36:55.470Z,28.50
2018-07-27T12:39:23.538Z,28.60
2018-07-27T12:41:51.606Z,28.60
2018-07-27T12:44:19.689Z,28.60
2018-07-27T12:46:47.746Z,28.60
2018-07-27T12:49:15.834Z,28.60
2018-07-27T12:51:43.886Z,28.60
2018-07-27T12:54:11.978Z,28.60
2018-07-27T12:56:40.099Z,28.60
2018-07-27T12:59:08.177Z,28.60
2018-07-27T13:01:36.227Z,28.60
2018-07-27T13:04:04.602Z,28.60
2018-07-27T13:06:32.659Z,28.60
2018-07-27T13:09:00.730Z,28.60
2018-07-27T13:11:28.783Z,28.60
2018-07-27T13:13:56.842Z,28.60
2018-07-27T13:16:24.895Z,28.60
2018-07-27T13:18:52.969Z,28.60
2018-07-27T13:21:21.024Z,28.60
2018-07-27T13:23:56.836Z,28.60
2018-07-27T13:26:24.918Z,28.60
2018-07-27T13:28:52.979Z,28.60
2018-07-27T13:31:51.723Z,28.60
2018-07-27T13:37:05.182Z,28.60
2018-07-27T13:39:33.880Z,28.60
2018-07-27T13:42:02.885Z,28.60
2018-07-27T13:44:32.311Z,28.60
2018-07-27T13:47:00.871Z,28.60
2018-07-27T13:49:29.250Z,28.60
2018-07-27T13:51:57.953Z,28.60
2018-07-27T13:54:26.243Z,28.60
2018-07-27T13:56:54.296Z,28.60
2018-07-27T13:59:22.358Z,28.60
2018-07-27T14:01:50.514Z,28.60
2018-07-27T14:04:18.580Z,28.60
2018-07-27T14:06:48.295Z,28.60
2018-07-27T14:09:16.394Z,28.60
2018-07-27T14:11:44.479Z,28.60
2018-07-27T14:14:12.871Z,28.60
2018-07-27T14:16:41.500Z,28.60
2018-07-27T14:19:09.884Z,28.70
2018-07-27T14:21:38.066Z,28.70
2018-07-27T14:24:06.284Z,28.70
2018-07-27T14:26:34.334Z,28.70
2018-07-27T14:29:02.410Z,28.70
2018-07-27T14:31:30.514Z,28.70
2018-07-27T14:33:58.594Z,28.70
2018-07-27T14:36:26.647Z,28.70
2018-07-27T14:38:54.711Z,28.70
2018-07-27T14:41:23.066Z,28.70
2018-07-27T14:43:51.515Z,28.70
2018-07-27T14:46:19.587Z,28.70
2018-07-27T14:48:47.670Z,28.70
2018-07-27T14:51:15.723Z,28.70
2018-07-27T14:53:43.830Z,28.80
2018-07-27T14:56:11.865Z,28.70
2018-07-27T14:58:40.571Z,28.80
2018-07-27T15:01:08.938Z,28.80
2018-07-27T15:06:05.579Z,28.80
2018-07-27T15:08:33.654Z,28.80
2018-07-27T15:11:02.031Z,28.80
2018-07-27T15:13:30.078Z,28.80
2018-07-27T15:15:58.151Z,28.80
2018-07-27T15:18:26.234Z,28.80
2018-07-27T15:20:54.290Z,28.80
2018-07-27T15:23:22.350Z,28.80
2018-07-27T15:25:50.418Z,28.80
2018-07-27T15:28:18.474Z,28.80
2018-07-27T15:30:46.547Z,28.80
2018-07-27T15:33:14.630Z,28.80
2018-07-27T15:35:42.711Z,28.80
2018-07-27T15:38:10.762Z,28.80
2018-07-27T15:40:38.835Z,28.80
2018-07-27T15:43:06.894Z,28.80
2018-07-27T15:45:34.974Z,28.80
2018-07-27T15:48:03.035Z,28.80
2018-07-27T15:50:31.123Z,28.80
2018-07-27T15:53:00.063Z,28.80
2018-07-27T15:55:28.163Z,28.80
2018-07-27T15:57:56.532Z,28.80
2018-07-27T16:00:24.587Z,28.80
2018-07-27T16:02:52.691Z,28.80
2018-07-27T16:05:20.762Z,28.80
2018-07-27T16:07:49.027Z,28.80
2018-07-27T16:10:17.126Z,28.80
2018-07-27T16:12:45.190Z,28.80
2018-07-27T16:15:13.282Z,28.80
2018-07-27T16:17:41.598Z,28.80
2018-07-27T16:20:09.670Z,28.80
2018-07-27T16:22:37.741Z,28.80
2018-07-27T16:25:05.887Z,28.80
2018-07-27T16:27:34.183Z,28.80
2018-07-27T16:30:02.282Z,28.80
2018-07-27T16:32:30.377Z,28.80
2018-07-27T16:34:58.471Z,28.80
2018-07-27T16:37:26.546Z,28.80
2018-07-27T16:39:54.634Z,28.80
2018-07-27T16:44:50.607Z,28.90
2018-07-27T16:47:18.662Z,28.80
2018-07-27T16:49:46.737Z,28.90
2018-07-27T16:52:14.803Z,28.80
2018-07-27T16:54:42.906Z,28.90
2018-07-27T16:57:10.978Z,28.90
2018-07-27T16:59:39.073Z,28.90
2018-07-27T17:02:07.166Z,28.80
2018-07-27T17:04:35.326Z,28.80
2018-07-27T17:07:03.893Z,28.80
2018-07-27T17:09:31.946Z,28.80
2018-07-27T17:12:00.055Z,28.90
2018-07-27T17:14:28.097Z,28.90
2018-07-27T17:16:56.198Z,28.90
2018-07-27T17:19:24.255Z,28.90
2018-07-27T17:21:52.315Z,28.80
2018-07-27T17:24:20.365Z,28.90
2018-07-27T17:26:48.434Z,28.80
2018-07-27T17:29:16.494Z,28.80
2018-07-27T17:31:44.558Z,28.80
2018-07-27T17:34:12.615Z,28.80
2018-07-27T17:36:40.706Z,28.80
2018-07-27T17:39:10.094Z,28.80
2018-07-27T17:41:38.518Z,28.80
2018-07-27T17:44:06.990Z,28.80
2018-07-27T17:46:35.071Z,28.80
2018-07-27T17:49:03.131Z,28.80
2018-07-27T17:51:31.202Z,28.90
2018-07-27T17:53:59.290Z,28.80
2018-07-27T17:56:27.391Z,28.80
2018-07-27T17:58:55.470Z,28.80
2018-07-27T18:01:23.898Z,28.80
2018-07-27T18:03:51.950Z,28.80
2018-07-27T18:06:20.031Z,28.80
2018-07-27T18:08:48.102Z,28.80
2018-07-27T18:11:16.183Z,28.80
2018-07-27T18:13:44.230Z,28.80
2018-07-27T18:16:12.294Z,28.80
2018-07-27T18:18:40.363Z,28.80
2018-07-27T18:21:08.874Z,28.80
2018-07-27T18:23:37.246Z,28.80
2018-07-27T18:26:05.333Z,28.80
2018-07-27T18:28:33.387Z,28.80
2018-07-27T18:31:01.455Z,28.80
2018-07-27T18:33:29.534Z,28.80
2018-07-27T18:35:57.655Z,28.80
2018-07-27T18:38:25.730Z,28.80
2018-07-27T18:40:53.787Z,28.80
2018-07-27T18:43:21.856Z,28.80
2018-07-27T18:45:49.919Z,28.80
2018-07-27T18:48:18.023Z,28.80
2018-07-27T18:50:46.386Z,28.80
2018-07-27T18:53:14.456Z,28.80
2018-07-27T18:55:42.527Z,28.80
2018-07-27T18:58:10.590Z,28.80
2018-07-27T19:00:38.654Z,28.80
2018-07-27T19:03:06.931Z,28.80
2018-07-27T19:05:34.995Z,28.70
2018-07-27T19:08:03.175Z,28.70
2018-07-27T19:10:31.748Z,28.70
2018-07-27T19:12:59.830Z,28.70
2018-07-27T19:15:27.942Z,28.80
2018-07-27T19:17:56.023Z,28.70
2018-07-27T19:20:24.089Z,28.80
2018-07-27T19:22:52.477Z,28.80
2018-07-27T19:25:20.570Z,28.80
2018-07-27T19:27:48.667Z,28.80
2018-07-27T19:30:16.734Z,28.70
2018-07-27T19:32:44.810Z,28.70
2018-07-27T19:35:12.875Z,28.70
2018-07-27T19:37:40.943Z,28.70
2018-07-27T19:40:09.023Z,28.70
2018-07-27T19:42:37.190Z,28.70
2018-07-27T19:45:05.751Z,28.70
2018-07-27T19:47:33.841Z,28.70
2018-07-27T19:50:01.902Z,28.70
2018-07-27T19:52:29.970Z,28.70
2018-07-27T19:54:58.334Z,28.70
2018-07-27T19:57:26.406Z,28.70
2018-07-27T19:59:54.478Z,28.70
2018-07-27T20:02:22.731Z,28.70
2018-07-27T20:04:50.819Z,28.70
2018-07-27T20:07:18.903Z,28.70
2018-07-27T20:09:46.990Z,28.70
2018-07-27T20:12:15.088Z,28.70
2018-07-27T20:14:43.154Z,28.70
2018-07-27T20:17:11.226Z,28.70
2018-07-27T20:19:39.305Z,28.70
2018-07-27T20:22:07.403Z,28.70
2018-07-27T20:24:35.482Z,28.70
2018-07-27T20:27:03.581Z,28.70
2018-07-27T20:29:31.674Z,28.70
2018-07-27T20:31:59.734Z,28.70
2018-07-27T20:34:27.806Z,28.70
2018-07-27T20:36:55.899Z,28.70
2018-07-27T20:39:23.967Z,28.70
2018-07-27T20:41:52.055Z,28.70
2018-07-27T20:44:20.122Z,28.70
2018-07-27T20:46:48.195Z,28.70
2018-07-27T20:49:16.271Z,28.70
2018-07-27T20:51:44.336Z,28.70
2018-07-27T20:54:12.407Z,28.70
2018-07-27T20:56:40.666Z,28.70
2018-07-27T20:59:08.739Z,28.70
2018-07-27T21:01:36.803Z,28.70
2018-07-27T21:04:04.949Z,28.70
2018-07-27T21:06:32.966Z,28.70
2018-07-27T21:09:01.037Z,28.70
2018-07-27T21:11:29.111Z,28.70
2018-07-27T21:13:57.167Z,28.70
2018-07-27T21:16:25.227Z,28.70
2018-07-27T21:18:54.582Z,28.70
2018-07-27T21:21:22.662Z,28.60
2018-07-27T21:23:50.729Z,28.60
2018-07-27T21:26:18.786Z,28.60
2018-07-27T21:28:46.847Z,28.60
2018-07-27T21:31:14.911Z,28.60
2018-07-27T21:33:43.002Z,28.60
2018-07-27T21:36:11.067Z,28.60
2018-07-27T21:38:39.152Z,28.60
2018-07-27T21:41:07.203Z,28.60
2018-07-27T21:43:35.291Z,28.60
2018-07-27T21:46:03.364Z,28.60
2018-07-27T21:48:31.540Z,28.60
2018-07-27T21:50:59.774Z,28.60
2018-07-27T21:53:27.863Z,28.60
2018-07-27T21:55:55.918Z,28.60
2018-07-27T21:58:23.987Z,28.60
2018-07-27T22:00:52.051Z,28.60
2018-07-27T22:03:20.110Z,28.60
2018-07-27T22:05:48.174Z,28.60
2018-07-27T22:08:16.287Z,28.60
2018-07-27T22:10:44.343Z,28.60
2018-07-27T22:13:12.446Z,28.60
2018-07-27T22:15:40.477Z,28.60
2018-07-27T22:18:08.526Z,28.60
2018-07-27T22:20:36.594Z,28.60
2018-07-27T22:23:04.662Z,28.60
2018-07-27T22:25:32.735Z,28.60
2018-07-27T22:28:00.858Z,28.60
2018-07-27T22:30:28.959Z,28.60
2018-07-27T22:32:57.014Z,28.60
2018-07-27T22:35:25.084Z,28.60
2018-07-27T22:37:53.142Z,28.60
2018-07-27T22:40:21.206Z,28.60
2018-07-27T22:42:49.263Z,28.60
2018-07-27T22:45:17.559Z,28.60
2018-07-27T22:47:45.626Z,28.60
2018-07-27T22:50:13.683Z,28.60
2018-07-27T22:52:41.822Z,28.60
2018-07-27T22:55:11.473Z,28.60
2018-07-27T22:57:40.581Z,28.60
2018-07-27T23:00:13.822Z,28.60
2018-07-27T23:02:42.701Z,28.60
2018-07-27T23:05:11.403Z,28.60
2018-07-27T23:07:39.475Z,28.60
2018-07-27T23:10:08.577Z,28.60
2018-07-27T23:12:36.634Z,28.60
2018-07-27T23:15:06.209Z,28.60
2018-07-27T23:17:34.482Z,28.60
2018-07-27T23:20:02.731Z,28.60
2018-07-27T23:22:30.857Z,28.60
2018-07-27T23:24:58.958Z,28.60
2018-07-27T23:27:27.034Z,28.60
2018-07-27T23:29:55.138Z,28.60
2018-07-27T23:32:23.498Z,28.60
2018-07-27T23:34:51.586Z,28.60
2018-07-27T23:37:19.676Z,28.60
2018-07-27T23:39:47.794Z,28.60
2018-07-27T23:42:15.897Z,28.60
2018-07-27T23:44:43.984Z,28.60
2018-07-27T23:47:12.171Z,28.60
2018-07-27T23:49:40.270Z,28.60
2018-07-27T23:52:08.472Z,28.60
2018-07-27T23:54:36.558Z,28.60
2018-07-27T23:57:04.835Z,28.60
2018-07-27T23:59:32.910Z,28.60
